sensor_id;sensor_type;location;lat;lon;timestamp;pressure;altitude;pressure_sealevel;temperature;humidity
40596;BME280;26304;48.794;9.820;2022-12-07T00:02:00;96286.50;;;14.92;54.56
40596;BME280;26304;48.794;9.820;2022-12-07T00:07:42;96294.66;;;14.86;54.66
40596;BME280;26304;48.794;9.820;2022-12-07T00:13:25;96285.72;;;14.87;54.66
40596;BME280;26304;48.794;9.820;2022-12-07T00:19:10;96284.53;;;14.85;54.80
40596;BME280;26304;48.794;9.820;2022-12-07T00:24:53;96290.44;;;14.82;55.00
40596;BME280;26304;48.794;9.820;2022-12-07T00:30:35;96278.75;;;14.76;54.53
40596;BME280;26304;48.794;9.820;2022-12-07T00:36:21;96274.16;;;14.69;55.28
40596;BME280;26304;48.794;9.820;2022-12-07T00:42:04;96267.00;;;14.66;55.16
40596;BME280;26304;48.794;9.820;2022-12-07T00:47:47;96270.72;;;14.65;55.29
40596;BME280;26304;48.794;9.820;2022-12-07T00:53:31;96271.41;;;14.62;55.34
40596;BME280;26304;48.794;9.820;2022-12-07T00:59:15;96268.38;;;14.60;55.11
40596;BME280;26304;48.794;9.820;2022-12-07T01:04:58;96276.88;;;14.57;55.32
40596;BME280;26304;48.794;9.820;2022-12-07T01:10:41;96273.84;;;14.54;55.25
40596;BME280;26304;48.794;9.820;2022-12-07T01:16:26;96272.38;;;14.53;55.00
40596;BME280;26304;48.794;9.820;2022-12-07T01:22:09;96273.06;;;14.50;55.28
40596;BME280;26304;48.794;9.820;2022-12-07T01:27:53;96282.75;;;14.50;55.00
40596;BME280;26304;48.794;9.820;2022-12-07T01:33:36;96280.47;;;14.48;55.28
40596;BME280;26304;48.794;9.820;2022-12-07T01:39:18;96282.28;;;14.44;55.21
40596;BME280;26304;48.794;9.820;2022-12-07T01:45:34;96293.81;;;14.43;55.03
40596;BME280;26304;48.794;9.820;2022-12-07T01:51:19;96291.56;;;14.42;54.82
40596;BME280;26304;48.794;9.820;2022-12-07T01:57:03;96291.91;;;14.40;55.02
40596;BME280;26304;48.794;9.820;2022-12-07T02:02:52;96289.28;;;14.40;55.17
40596;BME280;26304;48.794;9.820;2022-12-07T02:08:35;96295.19;;;14.37;54.63
40596;BME280;26304;48.794;9.820;2022-12-07T02:14:18;96295.97;;;14.38;55.16
40596;BME280;26304;48.794;9.820;2022-12-07T02:20:14;96302.28;;;14.37;54.59
40596;BME280;26304;48.794;9.820;2022-12-07T02:26:32;96294.38;;;14.33;55.03
40596;BME280;26304;48.794;9.820;2022-12-07T02:32:26;96281.66;;;14.31;54.46
40596;BME280;26304;48.794;9.820;2022-12-07T02:38:14;96275.31;;;14.32;54.42
40596;BME280;26304;48.794;9.820;2022-12-07T02:44:00;96278.59;;;14.29;54.90
40596;BME280;26304;48.794;9.820;2022-12-07T02:49:46;96282.69;;;14.27;54.62
40596;BME280;26304;48.794;9.820;2022-12-07T02:55:32;96275.94;;;14.26;54.14
40596;BME280;26304;48.794;9.820;2022-12-07T03:01:25;96267.28;;;14.22;54.05
40596;BME280;26304;48.794;9.820;2022-12-07T03:07:20;96266.84;;;14.20;54.39
40596;BME280;26304;48.794;9.820;2022-12-07T03:13:07;96256.66;;;14.14;54.02
40596;BME280;26304;48.794;9.820;2022-12-07T03:18:55;96262.63;;;14.15;54.21
40596;BME280;26304;48.794;9.820;2022-12-07T03:24:43;96266.38;;;14.14;53.81
40596;BME280;26304;48.794;9.820;2022-12-07T03:30:29;96265.19;;;14.11;53.91
40596;BME280;26304;48.794;9.820;2022-12-07T03:36:17;96265.19;;;14.11;53.83
40596;BME280;26304;48.794;9.820;2022-12-07T03:42:05;96264.78;;;14.09;54.12
40596;BME280;26304;48.794;9.820;2022-12-07T03:47:54;96257.63;;;14.06;54.05
40596;BME280;26304;48.794;9.820;2022-12-07T03:53:43;96255.00;;;14.06;53.74
40596;BME280;26304;48.794;9.820;2022-12-07T03:59:30;96253.81;;;14.04;54.39
40596;BME280;26304;48.794;9.820;2022-12-07T04:05:13;96257.13;;;14.01;54.14
40596;BME280;26304;48.794;9.820;2022-12-07T04:10:55;96252.22;;;13.99;53.65
40596;BME280;26304;48.794;9.820;2022-12-07T04:16:39;96251.06;;;13.96;53.92
40596;BME280;26304;48.794;9.820;2022-12-07T04:22:21;96245.06;;;13.96;53.79
40596;BME280;26304;48.794;9.820;2022-12-07T04:28:04;96249.56;;;13.95;53.06
40596;BME280;26304;48.794;9.820;2022-12-07T04:33:47;96237.94;;;13.93;53.35
40596;BME280;26304;48.794;9.820;2022-12-07T04:39:32;96229.25;;;13.89;53.47
40596;BME280;26304;48.794;9.820;2022-12-07T04:45:15;96221.41;;;13.89;53.07
40596;BME280;26304;48.794;9.820;2022-12-07T04:50:58;96218.75;;;13.85;53.06
40596;BME280;26304;48.794;9.820;2022-12-07T04:56:41;96215.34;;;13.85;53.57
40596;BME280;26304;48.794;9.820;2022-12-07T05:02:24;96215.34;;;13.85;53.40
40596;BME280;26304;48.794;9.820;2022-12-07T05:08:08;96213.00;;;13.79;53.17
40596;BME280;26304;48.794;9.820;2022-12-07T05:13:50;96211.50;;;13.78;52.86
40596;BME280;26304;48.794;9.820;2022-12-07T05:19:32;96198.53;;;13.82;53.09
40596;BME280;26304;48.794;9.820;2022-12-07T05:25:16;96207.38;;;13.77;53.20
40596;BME280;26304;48.794;9.820;2022-12-07T05:30:59;96226.31;;;13.55;54.50
40596;BME280;26304;48.794;9.820;2022-12-07T05:36:41;96232.31;;;15.95;49.02
40596;BME280;26304;48.794;9.820;2022-12-07T05:42:25;96215.72;;;16.86;47.55
40596;BME280;26304;48.794;9.820;2022-12-07T05:48:07;96222.47;;;17.98;45.77
40596;BME280;26304;48.794;9.820;2022-12-07T05:53:50;96208.41;;;18.64;45.00
40596;BME280;26304;48.794;9.820;2022-12-07T05:59:35;96229.16;;;19.27;44.39
40596;BME280;26304;48.794;9.820;2022-12-07T06:05:17;96233.47;;;20.20;43.68
40596;BME280;26304;48.794;9.820;2022-12-07T06:11:00;96237.97;;;20.26;43.58
40596;BME280;26304;48.794;9.820;2022-12-07T06:16:57;96250.41;;;21.00;43.22
40596;BME280;26304;48.794;9.820;2022-12-07T06:22:40;96238.34;;;21.44;42.71
40596;BME280;26304;48.794;9.820;2022-12-07T06:28:22;96252.53;;;21.65;42.47
40596;BME280;26304;48.794;9.820;2022-12-07T06:34:09;96257.19;;;22.22;41.84
40596;BME280;26304;48.794;9.820;2022-12-07T06:39:51;96250.78;;;22.23;42.25
40596;BME280;26304;48.794;9.820;2022-12-07T06:45:34;96253.19;;;22.45;41.84
40596;BME280;26304;48.794;9.820;2022-12-07T06:51:17;96253.28;;;22.92;41.14
40596;BME280;26304;48.794;9.820;2022-12-07T06:57:00;96262.50;;;23.11;41.25
40596;BME280;26304;48.794;9.820;2022-12-07T07:02:42;96261.63;;;23.18;41.19
40596;BME280;26304;48.794;9.820;2022-12-07T07:08:26;96261.88;;;23.00;41.81
40596;BME280;26304;48.794;9.820;2022-12-07T07:14:08;96256.38;;;22.33;43.24
40596;BME280;26304;48.794;9.820;2022-12-07T07:19:51;96263.00;;;21.75;44.85
40596;BME280;26304;48.794;9.820;2022-12-07T07:25:35;96274.03;;;21.21;45.92
40596;BME280;26304;48.794;9.820;2022-12-07T07:31:17;96273.25;;;20.68;46.92
40596;BME280;26304;48.794;9.820;2022-12-07T07:37:00;96279.06;;;20.27;47.93
40596;BME280;26304;48.794;9.820;2022-12-07T07:42:47;96271.63;;;19.97;49.14
40596;BME280;26304;48.794;9.820;2022-12-07T07:48:29;96281.09;;;19.66;50.15
40596;BME280;26304;48.794;9.820;2022-12-07T07:54:12;96281.09;;;19.37;51.46
40596;BME280;26304;48.794;9.820;2022-12-07T07:59:55;96281.84;;;19.12;51.91
40596;BME280;26304;48.794;9.820;2022-12-07T08:05:38;96292.38;;;19.01;53.33
40596;BME280;26304;48.794;9.820;2022-12-07T08:11:20;96282.13;;;18.64;54.59
40596;BME280;26304;48.794;9.820;2022-12-07T08:17:04;96284.81;;;16.60;46.35
40596;BME280;26304;48.794;9.820;2022-12-07T08:22:46;96286.16;;;15.62;45.60
40596;BME280;26304;48.794;9.820;2022-12-07T08:28:29;96283.19;;;15.14;45.55
40596;BME280;26304;48.794;9.820;2022-12-07T08:34:13;96285.06;;;15.90;45.94
40596;BME280;26304;48.794;9.820;2022-12-07T08:39:56;96298.78;;;18.05;43.43
40596;BME280;26304;48.794;9.820;2022-12-07T08:45:40;96285.97;;;19.71;41.63
40596;BME280;26304;48.794;9.820;2022-12-07T08:51:24;96288.00;;;20.55;40.98
40596;BME280;26304;48.794;9.820;2022-12-07T08:57:07;96292.13;;;21.27;40.58
40596;BME280;26304;48.794;9.820;2022-12-07T09:02:50;96297.81;;;21.74;40.64
40596;BME280;26304;48.794;9.820;2022-12-07T09:08:36;96297.91;;;22.39;39.96
40596;BME280;26304;48.794;9.820;2022-12-07T09:14:20;96294.44;;;22.73;40.41
40596;BME280;26304;48.794;9.820;2022-12-07T09:20:04;96296.38;;;22.38;41.32
40596;BME280;26304;48.794;9.820;2022-12-07T09:25:48;96291.03;;;21.69;43.26
40596;BME280;26304;48.794;9.820;2022-12-07T09:31:30;96294.75;;;21.30;43.69
40596;BME280;26304;48.794;9.820;2022-12-07T09:37:13;96293.94;;;20.81;44.95
40596;BME280;26304;48.794;9.820;2022-12-07T09:42:57;96289.16;;;20.47;46.58
40596;BME280;26304;48.794;9.820;2022-12-07T09:48:40;96288.94;;;20.09;47.78
40596;BME280;26304;48.794;9.820;2022-12-07T09:54:24;96281.84;;;19.81;48.39
40596;BME280;26304;48.794;9.820;2022-12-07T10:00:14;96277.69;;;19.54;49.29
40596;BME280;26304;48.794;9.820;2022-12-07T10:05:56;96272.44;;;19.40;49.51
40596;BME280;26304;48.794;9.820;2022-12-07T10:11:59;96267.94;;;19.26;50.15
40596;BME280;26304;48.794;9.820;2022-12-07T10:17:48;96267.16;;;19.18;49.64
40596;BME280;26304;48.794;9.820;2022-12-07T10:23:31;96259.25;;;19.11;49.91
40596;BME280;26304;48.794;9.820;2022-12-07T10:29:16;96258.09;;;19.05;49.75
40596;BME280;26304;48.794;9.820;2022-12-07T10:35:22;96254.34;;;18.88;49.69
40596;BME280;26304;48.794;9.820;2022-12-07T10:41:06;96251.28;;;18.72;50.59
40596;BME280;26304;48.794;9.820;2022-12-07T10:47:17;96242.22;;;18.51;50.22
40596;BME280;26304;48.794;9.820;2022-12-07T10:53:39;96238.03;;;18.39;49.72
40596;BME280;26304;48.794;9.820;2022-12-07T10:59:42;96232.34;;;18.30;49.68
40596;BME280;26304;48.794;9.820;2022-12-07T11:05:32;96227.06;;;18.19;49.71
40596;BME280;26304;48.794;9.820;2022-12-07T11:11:27;96220.25;;;18.07;49.62
40596;BME280;26304;48.794;9.820;2022-12-07T11:17:18;96222.47;;;17.98;49.62
40596;BME280;26304;48.794;9.820;2022-12-07T11:23:13;96210.81;;;17.95;49.43
40596;BME280;26304;48.794;9.820;2022-12-07T11:29:12;96206.22;;;17.85;50.01
40596;BME280;26304;48.794;9.820;2022-12-07T11:35:05;96200.59;;;17.87;49.90
40596;BME280;26304;48.794;9.820;2022-12-07T11:40:53;96193.44;;;17.76;49.55
40596;BME280;26304;48.794;9.820;2022-12-07T11:46:58;96194.16;;;17.73;49.39
40596;BME280;26304;48.794;9.820;2022-12-07T11:52:47;96188.84;;;17.66;49.59
40596;BME280;26304;48.794;9.820;2022-12-07T11:58:40;96182.47;;;17.60;49.75
40596;BME280;26304;48.794;9.820;2022-12-07T12:04:46;96174.16;;;17.54;49.54
40596;BME280;26304;48.794;9.820;2022-12-07T12:10:41;96176.03;;;17.54;49.32
40596;BME280;26304;48.794;9.820;2022-12-07T12:22:54;96160.22;;;17.43;52.09
40596;BME280;26304;48.794;9.820;2022-12-07T12:28:40;96164.31;;;17.40;50.52
40596;BME280;26304;48.794;9.820;2022-12-07T12:34:38;96157.06;;;17.23;50.88
40596;BME280;26304;48.794;9.820;2022-12-07T12:40:52;96148.28;;;16.97;52.29
40596;BME280;26304;48.794;9.820;2022-12-07T12:46:53;96148.78;;;17.14;51.69
40596;BME280;26304;48.794;9.820;2022-12-07T12:52:55;96146.16;;;17.14;51.20
40596;BME280;26304;48.794;9.820;2022-12-07T12:58:44;96138.63;;;17.12;51.36
40596;BME280;26304;48.794;9.820;2022-12-07T13:04:51;96134.88;;;17.10;51.04
40596;BME280;26304;48.794;9.820;2022-12-07T13:10:38;96121.03;;;17.20;51.14
40596;BME280;26304;48.794;9.820;2022-12-07T13:16:46;96118.03;;;17.18;51.18
40596;BME280;26304;48.794;9.820;2022-12-07T13:22:40;96118.03;;;17.18;51.58
40596;BME280;26304;48.794;9.820;2022-12-07T13:28:27;96119.69;;;17.44;52.44
40596;BME280;26304;48.794;9.820;2022-12-07T13:34:31;96114.34;;;18.39;50.15
40596;BME280;26304;48.794;9.820;2022-12-07T13:40:18;96110.41;;;19.66;46.02
40596;BME280;26304;48.794;9.820;2022-12-07T13:46:01;96111.66;;;20.21;45.12
40596;BME280;26304;48.794;9.820;2022-12-07T13:51:45;96120.94;;;20.96;43.50
40596;BME280;26304;48.794;9.820;2022-12-07T13:57:29;96111.94;;;20.90;43.72
40596;BME280;26304;48.794;9.820;2022-12-07T14:03:31;96116.81;;;21.33;43.00
40596;BME280;26304;48.794;9.820;2022-12-07T14:09:19;96117.41;;;21.83;42.04
40596;BME280;26304;48.794;9.820;2022-12-07T14:15:04;96119.44;;;22.02;41.85
40596;BME280;26304;48.794;9.820;2022-12-07T14:20:47;96119.91;;;21.93;42.14
40596;BME280;26304;48.794;9.820;2022-12-07T14:26:30;96119.69;;;21.50;43.53
40596;BME280;26304;48.794;9.820;2022-12-07T14:32:24;96117.03;;;21.12;44.30
40596;BME280;26304;48.794;9.820;2022-12-07T14:38:09;96119.66;;;20.70;45.63
40596;BME280;26304;48.794;9.820;2022-12-07T14:43:53;96104.59;;;20.63;45.97
40596;BME280;26304;48.794;9.820;2022-12-07T14:49:35;96108.16;;;20.39;46.47
40596;BME280;26304;48.794;9.820;2022-12-07T14:55:23;96110.91;;;20.24;46.69
40596;BME280;26304;48.794;9.820;2022-12-07T15:01:07;96113.31;;;19.97;47.38
40596;BME280;26304;48.794;9.820;2022-12-07T15:06:56;96108.84;;;19.83;47.36
40596;BME280;26304;48.794;9.820;2022-12-07T15:12:39;96114.56;;;19.64;47.73
40596;BME280;26304;48.794;9.820;2022-12-07T15:18:23;96115.38;;;19.50;47.88
40596;BME280;26304;48.794;9.820;2022-12-07T15:24:07;96103.75;;;19.33;48.44
40596;BME280;26304;48.794;9.820;2022-12-07T15:29:50;96107.53;;;19.21;48.31
40596;BME280;26304;48.794;9.820;2022-12-07T15:35:33;96097.03;;;19.10;48.70
40596;BME280;26304;48.794;9.820;2022-12-07T15:41:20;96099.31;;;19.01;48.55
40596;BME280;26304;48.794;9.820;2022-12-07T15:47:03;96101.91;;;19.08;48.49
40596;BME280;26304;48.794;9.820;2022-12-07T15:52:47;96102.31;;;19.03;48.47
40596;BME280;26304;48.794;9.820;2022-12-07T15:58:30;96095.94;;;18.93;48.83
40596;BME280;26304;48.794;9.820;2022-12-07T16:04:13;96090.28;;;18.91;48.45
40596;BME280;26304;48.794;9.820;2022-12-07T16:09:57;96083.16;;;18.84;48.77
40596;BME280;26304;48.794;9.820;2022-12-07T16:15:39;96072.97;;;18.79;48.85
40596;BME280;26304;48.794;9.820;2022-12-07T16:21:22;96077.88;;;18.70;48.70
40596;BME280;26304;48.794;9.820;2022-12-07T16:27:05;96080.50;;;18.70;48.80
40596;BME280;26304;48.794;9.820;2022-12-07T16:32:48;96074.50;;;18.73;48.62
40596;BME280;26304;48.794;9.820;2022-12-07T16:38:30;96070.34;;;18.72;48.43
40596;BME280;26304;48.794;9.820;2022-12-07T16:44:14;96066.97;;;18.68;48.77
40596;BME280;26304;48.794;9.820;2022-12-07T16:49:57;96062.47;;;18.68;48.85
40596;BME280;26304;48.794;9.820;2022-12-07T16:55:40;96066.59;;;18.66;48.46
40596;BME280;26304;48.794;9.820;2022-12-07T17:01:24;96054.19;;;18.63;48.52
40596;BME280;26304;48.794;9.820;2022-12-07T17:07:09;96048.91;;;18.63;48.62
40596;BME280;26304;48.794;9.820;2022-12-07T17:12:51;96045.16;;;18.57;48.69
40596;BME280;26304;48.794;9.820;2022-12-07T17:18:36;96047.41;;;18.55;48.64
40596;BME280;26304;48.794;9.820;2022-12-07T17:24:18;96051.19;;;18.57;48.63
40596;BME280;26304;48.794;9.820;2022-12-07T17:30:01;96044.41;;;18.56;48.52
40596;BME280;26304;48.794;9.820;2022-12-07T17:35:46;96033.53;;;18.40;48.92
40596;BME280;26304;48.794;9.820;2022-12-07T17:41:29;96042.91;;;18.44;48.68
40596;BME280;26304;48.794;9.820;2022-12-07T17:47:29;96035.41;;;18.46;48.85
40596;BME280;26304;48.794;9.820;2022-12-07T17:53:13;96029.34;;;18.46;48.45
40596;BME280;26304;48.794;9.820;2022-12-07T17:58:55;96030.88;;;18.50;48.02
40596;BME280;26304;48.794;9.820;2022-12-07T18:04:40;96031.63;;;18.55;48.19
40596;BME280;26304;48.794;9.820;2022-12-07T18:10:24;96035.38;;;18.50;48.21
40596;BME280;26304;48.794;9.820;2022-12-07T18:16:08;96033.16;;;18.30;48.44
40596;BME280;26304;48.794;9.820;2022-12-07T18:21:51;96038.00;;;17.96;49.39
40596;BME280;26304;48.794;9.820;2022-12-07T18:27:35;96041.31;;;17.71;49.70
40596;BME280;26304;48.794;9.820;2022-12-07T18:33:17;96040.84;;;17.48;49.04
40596;BME280;26304;48.794;9.820;2022-12-07T18:39:02;96033.72;;;17.45;49.55
40596;BME280;26304;48.794;9.820;2022-12-07T18:44:46;96043.13;;;17.53;48.51
40596;BME280;26304;48.794;9.820;2022-12-07T18:50:29;96044.28;;;17.63;48.90
40596;BME280;26304;48.794;9.820;2022-12-07T18:56:14;96038.53;;;17.28;48.72
40596;BME280;26304;48.794;9.820;2022-12-07T19:01:58;96031.34;;;17.14;48.19
40596;BME280;26304;48.794;9.820;2022-12-07T19:07:41;96034.44;;;17.45;47.86
40596;BME280;26304;48.794;9.820;2022-12-07T19:13:24;96036.75;;;17.61;47.81
40596;BME280;26304;48.794;9.820;2022-12-07T19:19:08;96028.91;;;17.65;48.26
40596;BME280;26304;48.794;9.820;2022-12-07T19:24:51;96024.38;;;17.61;48.33
40596;BME280;26304;48.794;9.820;2022-12-07T19:30:34;96025.50;;;17.60;48.30
40596;BME280;26304;48.794;9.820;2022-12-07T19:36:18;96028.50;;;17.55;48.76
40596;BME280;26304;48.794;9.820;2022-12-07T19:42:00;96023.19;;;17.45;48.95
40596;BME280;26304;48.794;9.820;2022-12-07T19:47:43;96024.34;;;17.51;48.75
40596;BME280;26304;48.794;9.820;2022-12-07T19:53:26;96018.69;;;17.41;48.92
40596;BME280;26304;48.794;9.820;2022-12-07T19:59:09;96022.84;;;16.76;46.57
40596;BME280;26304;48.794;9.820;2022-12-07T20:04:52;96002.38;;;16.41;44.89
40596;BME280;26304;48.794;9.820;2022-12-07T20:10:38;95995.41;;;16.11;44.01
40596;BME280;26304;48.794;9.820;2022-12-07T20:16:21;95991.56;;;15.97;44.22
40596;BME280;26304;48.794;9.820;2022-12-07T20:22:04;95988.88;;;15.90;44.83
40596;BME280;26304;48.794;9.820;2022-12-07T20:27:47;95988.81;;;15.83;43.75
40596;BME280;26304;48.794;9.820;2022-12-07T20:33:30;95984.47;;;15.64;43.97
40596;BME280;26304;48.794;9.820;2022-12-07T20:39:13;95978.81;;;15.58;44.13
40596;BME280;26304;48.794;9.820;2022-12-07T20:44:57;95976.59;;;15.60;45.32
40596;BME280;26304;48.794;9.820;2022-12-07T20:50:39;95972.47;;;15.59;45.54
40596;BME280;26304;48.794;9.820;2022-12-07T20:56:23;95966.41;;;15.55;46.01
40596;BME280;26304;48.794;9.820;2022-12-07T21:02:11;95961.91;;;15.52;46.07
40596;BME280;26304;48.794;9.820;2022-12-07T21:07:54;95948.78;;;15.49;46.52
40596;BME280;26304;48.794;9.820;2022-12-07T21:13:36;95953.97;;;15.45;47.31
40596;BME280;26304;48.794;9.820;2022-12-07T21:19:20;95954.69;;;15.42;46.87
40596;BME280;26304;48.794;9.820;2022-12-07T21:25:03;95942.31;;;15.39;47.24
40596;BME280;26304;48.794;9.820;2022-12-07T21:30:46;95937.06;;;15.35;47.38
40596;BME280;26304;48.794;9.820;2022-12-07T21:36:30;95941.88;;;15.33;47.60
40596;BME280;26304;48.794;9.820;2022-12-07T21:42:12;95922.78;;;15.29;47.58
40596;BME280;26304;48.794;9.820;2022-12-07T21:47:55;95920.50;;;15.28;47.96
40596;BME280;26304;48.794;9.820;2022-12-07T21:53:40;95927.56;;;15.23;48.12
40596;BME280;26304;48.794;9.820;2022-12-07T21:59:23;95927.19;;;15.21;48.23
40596;BME280;26304;48.794;9.820;2022-12-07T22:05:06;95933.09;;;15.15;48.74
40596;BME280;26304;48.794;9.820;2022-12-07T22:10:50;95934.53;;;15.12;48.81
40596;BME280;26304;48.794;9.820;2022-12-07T22:16:33;95926.31;;;15.10;48.77
40596;BME280;26304;48.794;9.820;2022-12-07T22:22:15;95919.88;;;15.04;48.84
40596;BME280;26304;48.794;9.820;2022-12-07T22:27:59;95917.97;;;15.01;48.84
40596;BME280;26304;48.794;9.820;2022-12-07T22:33:42;95910.06;;;14.94;49.04
40596;BME280;26304;48.794;9.820;2022-12-07T22:39:24;95909.63;;;14.92;48.90
40596;BME280;26304;48.794;9.820;2022-12-07T22:45:09;95902.13;;;14.90;48.95
40596;BME280;26304;48.794;9.820;2022-12-07T22:50:52;95900.63;;;14.85;48.55
40596;BME280;26304;48.794;9.820;2022-12-07T22:56:36;95892.72;;;14.82;48.42
40596;BME280;26304;48.794;9.820;2022-12-07T23:02:20;95886.34;;;14.79;48.86
40596;BME280;26304;48.794;9.820;2022-12-07T23:08:03;95886.34;;;14.79;48.68
40596;BME280;26304;48.794;9.820;2022-12-07T23:13:45;95879.19;;;14.76;48.29
40596;BME280;26304;48.794;9.820;2022-12-07T23:19:29;95881.00;;;14.72;48.55
40596;BME280;26304;48.794;9.820;2022-12-07T23:25:11;95884.75;;;14.71;48.82
40596;BME280;26304;48.794;9.820;2022-12-07T23:31:00;95884.69;;;14.67;48.81
40596;BME280;26304;48.794;9.820;2022-12-07T23:36:44;95873.47;;;14.67;48.44
40596;BME280;26304;48.794;9.820;2022-12-07T23:42:27;95858.50;;;14.64;48.58
40596;BME280;26304;48.794;9.820;2022-12-07T23:48:09;95863.34;;;14.62;48.17
40596;BME280;26304;48.794;9.820;2022-12-07T23:53:53;95852.41;;;14.56;48.54
40596;BME280;26304;48.794;9.820;2022-12-07T23:59:36;95849.03;;;14.56;48.21
